createdAt,value
2022-12-04T00:01:21.049Z,38.97
2022-12-04T00:03:49.408Z,38.03
2022-12-04T00:06:20.553Z,38.95
2022-12-04T00:08:48.657Z,39.47
2022-12-04T00:11:18.335Z,39.15
2022-12-04T00:13:46.767Z,39.30
2022-12-04T00:16:16.492Z,38.65
2022-12-04T00:18:44.453Z,39.35
2022-12-04T00:21:14.153Z,38.92
2022-12-04T00:23:42.052Z,38.28
2022-12-04T00:26:11.069Z,38.33
2022-12-04T00:28:39.335Z,40.58
2022-12-04T00:31:07.900Z,40.95
2022-12-04T00:33:35.384Z,40.45
2022-12-04T00:36:05.535Z,39.25
2022-12-04T00:38:34.538Z,40.00
2022-12-04T00:41:02.254Z,38.75
2022-12-04T00:43:30.451Z,39.05
2022-12-04T00:45:58.262Z,38.33
2022-12-04T00:48:25.860Z,40.05
2022-12-04T00:50:54.282Z,40.20
2022-12-04T00:53:22.604Z,39.60
2022-12-04T00:55:50.519Z,40.80
2022-12-04T00:58:18.020Z,41.05
2022-12-04T01:03:49.403Z,40.97
2022-12-04T01:06:27.896Z,38.75
2022-12-04T01:08:56.798Z,41.25
2022-12-04T01:11:25.823Z,39.22
2022-12-04T01:13:53.758Z,40.70
2022-12-04T01:16:26.128Z,39.97
2022-12-04T01:18:53.691Z,39.42
2022-12-04T01:21:23.574Z,41.22
2022-12-04T01:23:51.221Z,41.28
2022-12-04T01:26:19.210Z,41.17
2022-12-04T01:28:46.955Z,40.20
2022-12-04T01:31:16.588Z,40.22
2022-12-04T01:33:44.989Z,42.13
2022-12-04T01:36:14.333Z,41.20
2022-12-04T01:38:42.329Z,40.10
2022-12-04T01:41:11.084Z,42.90
2022-12-04T01:43:39.686Z,41.22
2022-12-04T01:46:07.786Z,41.47
2022-12-04T01:48:38.086Z,40.42
2022-12-04T01:51:17.114Z,39.65
2022-12-04T01:53:46.322Z,41.38
2022-12-04T01:56:14.868Z,40.20
2022-12-04T01:58:45.800Z,41.22
2022-12-04T02:01:13.628Z,40.75
2022-12-04T02:03:41.210Z,41.35
2022-12-04T02:06:09.123Z,40.25
2022-12-04T02:08:37.398Z,41.53
2022-12-04T02:11:05.074Z,41.92
2022-12-04T02:13:34.223Z,40.50
2022-12-04T02:16:15.174Z,40.08
2022-12-04T02:18:46.942Z,39.22
2022-12-04T02:21:18.463Z,39.90
2022-12-04T02:23:52.351Z,41.38
2022-12-04T02:26:27.365Z,40.47
2022-12-04T02:29:10.648Z,42.05
2022-12-04T02:31:43.883Z,40.47
2022-12-04T02:34:11.763Z,41.00
2022-12-04T02:36:46.510Z,41.33
2022-12-04T02:39:21.010Z,41.15
2022-12-04T02:41:52.202Z,41.38
2022-12-04T02:44:25.465Z,41.53
2022-12-04T02:46:56.822Z,42.20
2022-12-04T02:49:33.260Z,41.70
2022-12-04T02:52:02.285Z,40.75
2022-12-04T02:54:35.044Z,40.15
2022-12-04T02:57:04.185Z,42.30
2022-12-04T02:59:37.856Z,42.30
2022-12-04T03:02:10.311Z,39.70
2022-12-04T03:04:42.695Z,42.40
2022-12-04T03:07:15.853Z,44.70
2022-12-04T03:09:47.635Z,41.97
2022-12-04T03:12:32.241Z,42.20
2022-12-04T03:15:03.825Z,42.08
2022-12-04T03:17:35.151Z,42.95
2022-12-04T03:20:06.326Z,41.08
2022-12-04T03:22:37.820Z,42.88
2022-12-04T03:25:06.478Z,42.78
2022-12-04T03:27:34.456Z,41.47
2022-12-04T03:30:11.634Z,42.58
2022-12-04T03:32:52.246Z,40.90
2022-12-04T03:35:22.889Z,41.55
2022-12-04T03:38:05.472Z,41.13
2022-12-04T03:40:45.097Z,40.30
2022-12-04T03:43:17.542Z,39.33
2022-12-04T03:45:52.612Z,41.33
2022-12-04T03:48:25.197Z,42.38
2022-12-04T03:50:52.761Z,41.67
2022-12-04T03:53:35.859Z,42.70
2022-12-04T03:56:22.663Z,42.55
2022-12-04T03:58:52.072Z,40.47
2022-12-04T04:01:21.232Z,43.20
2022-12-04T04:03:53.281Z,41.28
2022-12-04T04:06:25.947Z,42.03
2022-12-04T04:08:56.680Z,40.63
2022-12-04T04:11:29.777Z,43.10
2022-12-04T04:14:27.097Z,41.75
2022-12-04T04:17:15.225Z,40.17
2022-12-04T04:20:03.272Z,40.90
2022-12-04T04:22:54.597Z,40.92
2022-12-04T04:25:26.507Z,41.20
2022-12-04T04:30:22.885Z,40.55
2022-12-04T04:33:05.960Z,42.55
2022-12-04T04:35:46.616Z,42.83
2022-12-04T04:38:21.096Z,40.83
2022-12-04T04:40:55.785Z,39.65
2022-12-04T04:43:27.268Z,42.05
2022-12-04T04:45:59.500Z,42.55
2022-12-04T04:48:30.498Z,40.70
2022-12-04T04:50:59.356Z,41.20
2022-12-04T04:53:32.483Z,41.97
2022-12-04T04:56:00.356Z,42.67
2022-12-04T04:58:28.817Z,40.65
2022-12-04T05:00:59.428Z,40.90
2022-12-04T05:03:27.618Z,42.60
2022-12-04T05:05:55.751Z,41.42
2022-12-04T05:08:24.036Z,41.53
2022-12-04T05:10:52.663Z,40.65
2022-12-04T05:13:20.867Z,42.13
2022-12-04T05:15:58.724Z,41.28
2022-12-04T05:18:26.726Z,40.65
2022-12-04T05:20:54.923Z,41.20
2022-12-04T05:23:22.547Z,40.75
2022-12-04T05:25:50.324Z,39.72
2022-12-04T05:28:18.121Z,40.17
2022-12-04T05:30:46.609Z,40.17
2022-12-04T05:33:17.035Z,40.95
2022-12-04T05:38:12.213Z,37.65
2022-12-04T05:40:39.987Z,37.95
2022-12-04T05:43:08.040Z,39.65
2022-12-04T05:45:35.655Z,39.55
2022-12-04T05:48:08.384Z,38.90
2022-12-04T05:50:36.137Z,39.72
2022-12-04T05:53:04.385Z,38.40
2022-12-04T05:55:33.773Z,40.58
2022-12-04T05:58:04.424Z,38.70
2022-12-04T06:00:33.600Z,41.58
2022-12-04T06:03:02.235Z,39.45
2022-12-04T06:05:29.751Z,38.28
2022-12-04T06:07:57.596Z,36.58
2022-12-04T06:10:25.171Z,38.40
2022-12-04T06:12:57.820Z,39.65
2022-12-04T06:15:27.269Z,38.08
2022-12-04T06:17:54.851Z,39.22
2022-12-04T06:20:22.480Z,40.45
2022-12-04T06:22:50.054Z,43.08
2022-12-04T06:25:17.950Z,38.25
2022-12-04T06:30:17.586Z,37.13
2022-12-04T06:32:45.517Z,39.00
2022-12-04T06:35:13.486Z,39.15
2022-12-04T06:37:41.215Z,37.30
2022-12-04T06:40:09.388Z,37.92
2022-12-04T06:42:36.912Z,39.67
2022-12-04T06:45:05.531Z,37.08
2022-12-04T06:47:33.600Z,36.80
2022-12-04T06:50:02.869Z,38.55
2022-12-04T06:52:30.404Z,36.33
2022-12-04T06:54:59.179Z,36.42
2022-12-04T06:57:26.641Z,36.17
2022-12-04T06:59:54.590Z,38.63
2022-12-04T07:02:23.048Z,35.95
2022-12-04T07:04:51.503Z,36.42
2022-12-04T07:07:19.637Z,38.17
2022-12-04T07:09:47.990Z,36.80
2022-12-04T07:12:17.316Z,36.58
2022-12-04T07:14:45.146Z,37.17
2022-12-04T07:17:12.830Z,38.17
2022-12-04T07:19:40.812Z,37.38
2022-12-04T07:22:09.145Z,36.17
2022-12-04T07:24:40.129Z,35.25
2022-12-04T07:27:10.011Z,37.28
2022-12-04T07:29:38.505Z,35.00
2022-12-04T07:32:06.192Z,34.50
2022-12-04T07:34:36.844Z,33.95
2022-12-04T07:37:05.107Z,37.90
2022-12-04T07:39:33.785Z,35.53
2022-12-04T07:42:02.282Z,33.55
2022-12-04T07:44:32.415Z,35.90
2022-12-04T07:47:00.039Z,33.22
2022-12-04T07:49:27.947Z,33.65
2022-12-04T07:51:58.302Z,33.40
2022-12-04T07:54:27.303Z,33.90
2022-12-04T07:56:55.169Z,35.55
2022-12-04T07:59:27.953Z,33.65
2022-12-04T08:01:56.572Z,34.72
2022-12-04T08:04:25.723Z,33.67
2022-12-04T08:06:54.031Z,34.85
2022-12-04T08:09:21.940Z,33.58
2022-12-04T08:11:50.416Z,32.78
2022-12-04T08:14:21.817Z,34.17
2022-12-04T08:16:52.893Z,35.38
2022-12-04T08:19:22.259Z,30.48
2022-12-04T08:21:50.591Z,33.45
2022-12-04T08:24:19.239Z,32.42
2022-12-04T08:26:47.226Z,30.85
2022-12-04T08:29:17.045Z,30.75
2022-12-04T08:31:45.911Z,31.58
2022-12-04T08:34:14.392Z,30.02
2022-12-04T08:36:42.392Z,27.58
2022-12-04T08:39:10.734Z,29.52
2022-12-04T08:41:39.857Z,28.63
2022-12-04T08:44:07.423Z,30.30
2022-12-04T08:46:35.292Z,29.70
2022-12-04T08:49:07.230Z,28.05
2022-12-04T08:51:35.984Z,27.67
2022-12-04T08:54:06.564Z,26.40
2022-12-04T08:56:35.396Z,24.33
2022-12-04T08:59:03.948Z,25.80
2022-12-04T09:01:32.257Z,26.15
2022-12-04T09:04:02.463Z,24.60
2022-12-04T09:06:30.439Z,24.45
2022-12-04T09:09:02.277Z,25.77
2022-12-04T09:11:31.034Z,25.77
2022-12-04T09:13:59.983Z,25.35
2022-12-04T09:16:27.764Z,27.08
2022-12-04T09:18:55.949Z,26.38
2022-12-04T09:21:24.979Z,26.25
2022-12-04T09:23:53.380Z,25.98
2022-12-04T09:26:22.755Z,24.83
2022-12-04T09:28:50.935Z,24.67
2022-12-04T09:31:19.253Z,23.63
2022-12-04T09:33:47.011Z,24.73
2022-12-04T09:36:17.972Z,25.25
2022-12-04T09:38:46.568Z,24.45
2022-12-04T09:41:26.296Z,24.60
2022-12-04T09:43:53.794Z,25.05
2022-12-04T09:46:27.829Z,25.15
2022-12-04T09:48:59.086Z,24.70
2022-12-04T09:51:27.064Z,25.98
2022-12-04T09:54:00.709Z,24.95
2022-12-04T09:56:29.868Z,23.35
2022-12-04T09:59:09.888Z,23.08
2022-12-04T10:01:41.274Z,23.55
2022-12-04T10:04:10.913Z,23.90
2022-12-04T10:06:48.933Z,22.75
2022-12-04T10:09:35.642Z,22.98
2022-12-04T10:12:08.388Z,22.50
2022-12-04T10:14:55.020Z,20.92
2022-12-04T10:17:32.686Z,22.02
2022-12-04T10:20:12.789Z,21.75
2022-12-04T10:22:49.943Z,21.33
2022-12-04T10:25:22.710Z,20.45
2022-12-04T10:27:50.451Z,21.70
2022-12-04T10:30:21.141Z,21.13
2022-12-04T10:32:50.509Z,21.23
2022-12-04T10:35:18.171Z,21.30
2022-12-04T10:37:46.751Z,20.42
2022-12-04T10:40:20.516Z,21.27
2022-12-04T10:42:54.088Z,19.85
2022-12-04T10:45:23.422Z,19.48
2022-12-04T10:47:51.501Z,19.67
2022-12-04T10:50:24.281Z,20.48
2022-12-04T10:52:53.164Z,18.38
2022-12-04T10:55:33.084Z,19.17
2022-12-04T10:58:03.697Z,20.38
2022-12-04T11:00:36.473Z,20.13
2022-12-04T11:03:24.720Z,39.15
2022-12-04T11:05:57.046Z,28.27
2022-12-04T11:08:26.812Z,21.50
2022-12-04T11:11:00.110Z,19.85
2022-12-04T11:13:28.084Z,20.75
2022-12-04T11:15:56.759Z,18.10
2022-12-04T11:18:25.112Z,20.30
2022-12-04T11:20:52.954Z,19.73
2022-12-04T11:23:21.850Z,19.00
2022-12-04T11:25:51.416Z,19.52
2022-12-04T11:28:41.287Z,19.38
2022-12-04T11:31:11.659Z,18.70
2022-12-04T11:33:46.966Z,18.85
2022-12-04T11:36:41.594Z,18.27
2022-12-04T11:39:12.222Z,18.17
2022-12-04T11:41:40.630Z,19.42
2022-12-04T11:44:20.862Z,18.58
2022-12-04T11:46:54.053Z,19.52
2022-12-04T11:49:25.720Z,19.10
2022-12-04T11:52:12.342Z,19.48
2022-12-04T11:54:42.563Z,18.13
2022-12-04T11:57:43.375Z,18.30
2022-12-04T12:00:24.362Z,19.50
2022-12-04T12:03:12.698Z,17.77
2022-12-04T12:05:44.883Z,18.15
2022-12-04T12:08:27.787Z,18.25
2022-12-04T12:10:55.891Z,18.35
2022-12-04T12:13:36.799Z,18.77
2022-12-04T12:16:04.375Z,17.67
2022-12-04T12:19:02.502Z,18.27
2022-12-04T12:21:48.955Z,17.27
2022-12-04T12:24:49.882Z,17.42
2022-12-04T12:27:25.268Z,18.80
2022-12-04T12:30:05.702Z,18.10
2022-12-04T12:35:02.369Z,18.73
2022-12-04T12:37:37.074Z,22.65
2022-12-04T12:40:08.048Z,21.40
2022-12-04T12:42:38.639Z,20.63
2022-12-04T12:45:09.126Z,21.00
2022-12-04T12:50:12.927Z,17.38
2022-12-04T12:52:41.587Z,19.67
2022-12-04T12:55:25.395Z,18.60
2022-12-04T12:57:58.961Z,18.73
2022-12-04T13:00:27.241Z,18.58
2022-12-04T13:02:54.917Z,18.38
2022-12-04T13:05:27.618Z,19.35
2022-12-04T13:08:02.156Z,19.27
2022-12-04T13:10:33.548Z,18.58
2022-12-04T13:13:09.179Z,18.70
2022-12-04T13:15:51.308Z,16.98
2022-12-04T13:18:34.236Z,18.80
2022-12-04T13:21:06.780Z,19.40
2022-12-04T13:23:55.255Z,18.40
2022-12-04T13:26:52.161Z,19.00
2022-12-04T13:29:22.733Z,18.17
2022-12-04T13:32:11.041Z,18.58
2022-12-04T13:34:47.770Z,17.73
2022-12-04T13:37:25.339Z,18.23
2022-12-04T13:40:13.005Z,18.77
2022-12-04T13:42:43.510Z,18.55
2022-12-04T13:45:12.800Z,17.58
2022-12-04T13:47:40.355Z,17.95
2022-12-04T13:50:27.619Z,18.27
2022-12-04T13:52:55.513Z,19.70
2022-12-04T13:55:28.778Z,17.63
2022-12-04T13:57:57.455Z,17.88
2022-12-04T14:00:33.981Z,16.98
2022-12-04T14:03:05.075Z,17.77
2022-12-04T14:05:41.024Z,18.05
2022-12-04T14:08:28.896Z,17.35
2022-12-04T14:11:00.497Z,17.30
2022-12-04T14:13:30.354Z,16.52
2022-12-04T14:16:08.738Z,16.73
2022-12-04T14:18:36.782Z,16.63
2022-12-04T14:21:06.598Z,16.63
2022-12-04T14:23:35.536Z,16.08
2022-12-04T14:26:05.651Z,16.77
2022-12-04T14:28:41.707Z,17.30
2022-12-04T14:31:16.646Z,16.35
2022-12-04T14:33:48.272Z,17.45
2022-12-04T14:36:24.711Z,17.15
2022-12-04T14:38:57.541Z,17.17
2022-12-04T14:41:26.974Z,16.70
2022-12-04T14:43:54.724Z,16.60
2022-12-04T14:46:25.187Z,16.90
2022-12-04T14:51:38.780Z,16.70
2022-12-04T14:54:09.541Z,16.77
2022-12-04T14:56:52.261Z,16.52
2022-12-04T14:59:24.859Z,16.40
2022-12-04T15:01:53.159Z,17.60
2022-12-04T15:04:21.145Z,17.45
2022-12-04T15:06:51.440Z,16.83
2022-12-04T15:09:40.774Z,18.70
2022-12-04T15:12:33.797Z,17.67
2022-12-04T15:15:22.298Z,18.45
2022-12-04T15:18:03.010Z,19.70
2022-12-04T15:20:38.782Z,18.52
2022-12-04T15:23:08.891Z,18.80
2022-12-04T15:25:41.555Z,20.13
2022-12-04T15:28:15.043Z,21.05
2022-12-04T15:30:44.506Z,20.55
2022-12-04T15:33:23.891Z,20.40
2022-12-04T15:35:53.997Z,21.38
2022-12-04T15:38:21.874Z,21.00
2022-12-04T15:40:56.757Z,21.20
2022-12-04T15:43:30.678Z,20.65
2022-12-04T15:45:59.473Z,22.95
2022-12-04T15:48:29.517Z,21.55
2022-12-04T15:51:07.687Z,23.00
2022-12-04T15:53:38.260Z,22.45
2022-12-04T15:58:40.417Z,23.48
2022-12-04T16:01:12.163Z,24.27
2022-12-04T16:03:43.558Z,25.15
2022-12-04T16:06:14.245Z,24.92
2022-12-04T16:11:24.531Z,23.60
2022-12-04T16:14:10.777Z,25.35
2022-12-04T16:16:42.491Z,26.30
2022-12-04T16:19:18.019Z,28.08
2022-12-04T16:21:45.897Z,25.58
2022-12-04T16:24:14.293Z,24.48
2022-12-04T16:26:42.354Z,25.95
2022-12-04T16:29:10.179Z,27.50
2022-12-04T16:31:38.957Z,26.05
2022-12-04T16:34:07.773Z,25.90
2022-12-04T16:36:35.843Z,26.35
2022-12-04T16:39:04.324Z,26.23
2022-12-04T16:41:33.321Z,26.70
2022-12-04T16:44:06.211Z,25.87
2022-12-04T16:46:35.356Z,27.30
2022-12-04T16:49:07.589Z,27.58
2022-12-04T16:51:37.741Z,25.90
2022-12-04T16:54:05.898Z,26.08
2022-12-04T16:56:34.976Z,26.60
2022-12-04T16:59:08.963Z,26.17
2022-12-04T17:01:42.321Z,28.60
2022-12-04T17:04:10.723Z,25.58
2022-12-04T17:06:38.356Z,25.23
2022-12-04T17:09:05.984Z,27.08
2022-12-04T17:11:34.555Z,25.60
2022-12-04T17:14:07.277Z,25.38
2022-12-04T17:16:36.095Z,26.02
2022-12-04T17:19:05.993Z,25.67
2022-12-04T17:21:34.667Z,26.63
2022-12-04T17:24:03.889Z,29.17
2022-12-04T17:26:34.499Z,27.63
2022-12-04T17:29:02.686Z,31.17
2022-12-04T17:31:34.062Z,30.30
2022-12-04T17:34:04.176Z,29.45
2022-12-04T17:36:32.273Z,31.20
2022-12-04T17:39:02.363Z,33.63
2022-12-04T17:44:00.480Z,26.17
2022-12-04T17:46:29.649Z,26.50
2022-12-04T17:49:02.607Z,32.20
2022-12-04T17:51:35.168Z,28.67
2022-12-04T17:54:04.309Z,25.90
2022-12-04T17:56:32.653Z,26.38
2022-12-04T17:59:00.367Z,28.25
2022-12-04T18:01:29.110Z,27.25
2022-12-04T18:03:58.871Z,26.48
2022-12-04T18:06:40.917Z,25.35
2022-12-04T18:09:10.040Z,28.00
2022-12-04T18:11:38.870Z,26.08
2022-12-04T18:14:11.939Z,25.05
2022-12-04T18:16:42.532Z,25.30
2022-12-04T18:19:11.595Z,23.95
2022-12-04T18:21:39.312Z,23.48
2022-12-04T18:24:07.923Z,22.70
2022-12-04T18:26:40.677Z,23.70
2022-12-04T18:29:09.215Z,23.77
2022-12-04T18:31:37.974Z,23.42
2022-12-04T18:34:06.925Z,22.88
2022-12-04T18:36:42.733Z,23.83
2022-12-04T18:39:18.540Z,22.05
2022-12-04T18:41:47.066Z,24.10
2022-12-04T18:44:15.103Z,22.48
2022-12-04T18:46:43.223Z,21.85
2022-12-04T18:49:11.243Z,22.23
2022-12-04T18:51:39.882Z,23.10
2022-12-04T18:54:15.009Z,22.30
2022-12-04T18:56:43.290Z,23.50
2022-12-04T18:59:12.831Z,22.65
2022-12-04T19:01:41.544Z,22.52
2022-12-04T19:04:10.270Z,22.65
2022-12-04T19:06:38.936Z,24.00
2022-12-04T19:09:10.307Z,23.95
2022-12-04T19:11:38.342Z,23.98
2022-12-04T19:14:16.085Z,23.35
2022-12-04T19:16:45.981Z,23.33
2022-12-04T19:19:14.774Z,22.63
2022-12-04T19:21:42.487Z,23.42
2022-12-04T19:24:10.664Z,22.55
2022-12-04T19:26:38.751Z,23.75
2022-12-04T19:29:06.989Z,24.95
2022-12-04T19:31:36.114Z,23.55
2022-12-04T19:34:06.436Z,23.55
2022-12-04T19:39:06.556Z,24.38
2022-12-04T19:41:35.311Z,24.00
2022-12-04T19:44:20.040Z,25.15
2022-12-04T19:46:51.672Z,25.98
2022-12-04T19:49:19.407Z,27.90
2022-12-04T19:51:47.862Z,26.42
2022-12-04T19:54:15.928Z,25.45
2022-12-04T19:56:46.407Z,26.65
2022-12-04T19:59:14.087Z,25.58
2022-12-04T20:01:42.603Z,27.45
2022-12-04T20:04:10.925Z,31.17
2022-12-04T20:06:40.127Z,29.73
2022-12-04T20:09:09.633Z,28.42
2022-12-04T20:11:37.804Z,29.27
2022-12-04T20:14:06.288Z,31.38
2022-12-04T20:16:35.274Z,30.48
2022-12-04T20:19:06.451Z,29.80
2022-12-04T20:21:34.901Z,29.67
2022-12-04T20:24:04.678Z,28.95
2022-12-04T20:26:37.401Z,29.95
2022-12-04T20:29:06.834Z,30.50
2022-12-04T20:31:35.584Z,30.45
2022-12-04T20:34:04.488Z,31.42
2022-12-04T20:36:33.705Z,33.58
2022-12-04T20:39:01.898Z,31.60
2022-12-04T20:41:30.503Z,32.53
2022-12-04T20:44:00.372Z,31.98
2022-12-04T20:46:32.711Z,30.25
2022-12-04T20:49:02.479Z,30.25
2022-12-04T20:51:32.501Z,31.20
2022-12-04T20:54:00.578Z,31.05
2022-12-04T20:56:32.425Z,34.30
2022-12-04T20:59:04.826Z,34.60
2022-12-04T21:01:33.762Z,33.90
2022-12-04T21:04:02.641Z,33.58
2022-12-04T21:06:36.666Z,35.38
2022-12-04T21:09:06.204Z,34.25
2022-12-04T21:11:35.545Z,35.67
2022-12-04T21:14:24.465Z,35.83
2022-12-04T21:16:52.616Z,32.45
2022-12-04T21:19:21.336Z,32.15
2022-12-04T21:21:49.251Z,33.63
2022-12-04T21:24:18.466Z,32.78
2022-12-04T21:26:47.423Z,32.30
2022-12-04T21:29:16.321Z,34.13
2022-12-04T21:31:44.687Z,32.38
2022-12-04T21:34:14.626Z,34.03
2022-12-04T21:36:42.621Z,31.40
2022-12-04T21:39:10.855Z,32.78
2022-12-04T21:42:00.771Z,34.20
2022-12-04T21:44:28.594Z,33.38
2022-12-04T21:46:57.554Z,31.63
2022-12-04T21:49:25.090Z,33.00
2022-12-04T21:51:59.864Z,35.38
2022-12-04T21:54:28.718Z,32.83
2022-12-04T21:56:56.810Z,32.05
2022-12-04T21:59:25.176Z,33.10
2022-12-04T22:01:53.065Z,32.35
2022-12-04T22:04:21.215Z,32.22
2022-12-04T22:06:48.932Z,31.95
2022-12-04T22:09:16.729Z,33.97
2022-12-04T22:11:45.040Z,30.60
2022-12-04T22:14:13.208Z,30.95
2022-12-04T22:16:43.277Z,31.48
2022-12-04T22:19:12.152Z,31.77
2022-12-04T22:21:40.547Z,32.35
2022-12-04T22:24:11.422Z,33.22
2022-12-04T22:26:39.794Z,30.50
2022-12-04T22:29:41.539Z,31.67
2022-12-04T22:31:55.887Z,31.10
2022-12-04T22:34:23.783Z,30.85
2022-12-04T22:36:51.489Z,30.85
2022-12-04T22:39:19.085Z,31.95
2022-12-04T22:41:50.102Z,32.35
2022-12-04T22:44:17.794Z,31.42
2022-12-04T22:46:45.649Z,31.33
2022-12-04T22:49:13.401Z,33.17
2022-12-04T22:51:40.968Z,31.15
2022-12-04T22:54:13.052Z,32.63
2022-12-04T22:56:40.800Z,31.70
2022-12-04T22:59:08.621Z,31.70
2022-12-04T23:01:36.362Z,31.60
2022-12-04T23:04:04.642Z,31.90
2022-12-04T23:06:33.511Z,31.15
2022-12-04T23:09:03.652Z,33.40
2022-12-04T23:11:33.863Z,31.65
2022-12-04T23:14:04.093Z,33.63
2022-12-04T23:16:34.341Z,32.25
2022-12-04T23:21:30.888Z,30.58
2022-12-04T23:23:58.554Z,31.23
2022-12-04T23:26:36.321Z,31.25
2022-12-04T23:29:17.896Z,31.55
2022-12-04T23:31:51.403Z,31.08
2022-12-04T23:34:19.006Z,32.80
2022-12-04T23:36:46.675Z,31.27
2022-12-04T23:39:14.047Z,31.52
2022-12-04T23:41:41.804Z,32.35
2022-12-04T23:44:09.419Z,33.65
2022-12-04T23:46:37.086Z,31.60
2022-12-04T23:49:05.071Z,33.92
2022-12-04T23:51:34.120Z,31.55
2022-12-04T23:54:02.470Z,31.98
2022-12-04T23:56:29.957Z,33.00
2022-12-04T23:58:58.275Z,32.10
